Terminal Aerodrome Forecast
Issued by NWS Duluth, MN

Home | Current Version | Previous Version | Text Only | Print | Product List | Glossary On
Versions: 1 2 3 4 5 6 7 8 9 10 11 12 13 14 15
256
FTUS43 KDLH 091738
TAFINL
TAF
KINL 091738Z 0918/1018 32010KT P6SM SKC
     FM100000 35005KT P6SM SKC
     FM101000 03002KT P6SM SCT200
     FM101700 10004KT P6SM BKN170=

USA.gov is the U.S. government's official web portal to all federal, state and local government web resources and services.